sensor_id;sensor_type;location;lat;lon;timestamp;temperature;humidity
74661;SHT31;63191;39.566;2.654;2023-08-06T00:00:27;22.18;44.90
74661;SHT31;63191;39.566;2.654;2023-08-06T00:02:53;22.16;44.82
74661;SHT31;63191;39.566;2.654;2023-08-06T00:05:19;22.13;44.80
74661;SHT31;63191;39.566;2.654;2023-08-06T00:07:49;22.09;44.73
74661;SHT31;63191;39.566;2.654;2023-08-06T00:10:16;22.06;44.70
74661;SHT31;63191;39.566;2.654;2023-08-06T00:12:43;22.03;44.63
74661;SHT31;63191;39.566;2.654;2023-08-06T00:15:09;21.99;44.63
74661;SHT31;63191;39.566;2.654;2023-08-06T00:17:36;21.94;44.72
74661;SHT31;63191;39.566;2.654;2023-08-06T00:20:03;21.90;44.83
74661;SHT31;63191;39.566;2.654;2023-08-06T00:22:34;21.87;44.91
74661;SHT31;63191;39.566;2.654;2023-08-06T00:25:02;21.84;44.98
74661;SHT31;63191;39.566;2.654;2023-08-06T00:27:29;21.82;45.20
74661;SHT31;63191;39.566;2.654;2023-08-06T00:29:55;21.81;45.30
74661;SHT31;63191;39.566;2.654;2023-08-06T00:32:21;21.80;45.21
74661;SHT31;63191;39.566;2.654;2023-08-06T00:34:47;21.80;45.22
74661;SHT31;63191;39.566;2.654;2023-08-06T00:37:17;21.80;45.25
74661;SHT31;63191;39.566;2.654;2023-08-06T00:39:43;21.80;45.30
74661;SHT31;63191;39.566;2.654;2023-08-06T00:42:09;21.78;45.40
74661;SHT31;63191;39.566;2.654;2023-08-06T00:44:36;21.74;45.53
74661;SHT31;63191;39.566;2.654;2023-08-06T00:47:03;21.71;45.58
74661;SHT31;63191;39.566;2.654;2023-08-06T00:49:29;21.71;45.79
74661;SHT31;63191;39.566;2.654;2023-08-06T00:51:55;21.71;45.67
74661;SHT31;63191;39.566;2.654;2023-08-06T00:54:22;21.70;45.53
74661;SHT31;63191;39.566;2.654;2023-08-06T00:56:49;21.67;45.41
74661;SHT31;63191;39.566;2.654;2023-08-06T00:59:15;21.64;45.44
74661;SHT31;63191;39.566;2.654;2023-08-06T01:01:40;21.61;45.52
74661;SHT31;63191;39.566;2.654;2023-08-06T01:04:06;21.57;45.55
74661;SHT31;63191;39.566;2.654;2023-08-06T01:09:15;21.52;45.69
74661;SHT31;63191;39.566;2.654;2023-08-06T01:17:18;21.52;45.98
74661;SHT31;63191;39.566;2.654;2023-08-06T01:19:45;21.52;45.87
74661;SHT31;63191;39.566;2.654;2023-08-06T01:22:11;21.50;45.83
74661;SHT31;63191;39.566;2.654;2023-08-06T01:24:36;21.48;45.87
74661;SHT31;63191;39.566;2.654;2023-08-06T01:29:56;21.45;46.11
74661;SHT31;63191;39.566;2.654;2023-08-06T01:32:46;21.42;46.44
74661;SHT31;63191;39.566;2.654;2023-08-06T01:35:17;21.39;46.76
74661;SHT31;63191;39.566;2.654;2023-08-06T01:37:45;21.40;47.22
74661;SHT31;63191;39.566;2.654;2023-08-06T01:40:12;21.42;47.51
74661;SHT31;63191;39.566;2.654;2023-08-06T01:42:39;21.40;47.72
74661;SHT31;63191;39.566;2.654;2023-08-06T01:45:09;21.37;47.79
74661;SHT31;63191;39.566;2.654;2023-08-06T01:47:35;21.33;47.77
74661;SHT31;63191;39.566;2.654;2023-08-06T01:50:01;21.30;48.01
74661;SHT31;63191;39.566;2.654;2023-08-06T01:52:28;21.27;48.15
74661;SHT31;63191;39.566;2.654;2023-08-06T01:54:54;21.26;48.39
74661;SHT31;63191;39.566;2.654;2023-08-06T01:57:20;21.24;48.47
74661;SHT31;63191;39.566;2.654;2023-08-06T01:59:46;21.22;48.67
74661;SHT31;63191;39.566;2.654;2023-08-06T02:02:12;21.19;48.81
74661;SHT31;63191;39.566;2.654;2023-08-06T02:04:38;21.16;48.92
74661;SHT31;63191;39.566;2.654;2023-08-06T02:07:03;21.13;49.19
74661;SHT31;63191;39.566;2.654;2023-08-06T02:09:29;21.10;49.51
74661;SHT31;63191;39.566;2.654;2023-08-06T02:11:55;21.09;49.83
74661;SHT31;63191;39.566;2.654;2023-08-06T02:14:21;21.08;50.00
74661;SHT31;63191;39.566;2.654;2023-08-06T02:16:47;21.08;50.21
74661;SHT31;63191;39.566;2.654;2023-08-06T02:19:12;21.09;50.26
74661;SHT31;63191;39.566;2.654;2023-08-06T02:21:38;21.09;50.44
74661;SHT31;63191;39.566;2.654;2023-08-06T02:24:04;21.10;50.76
74661;SHT31;63191;39.566;2.654;2023-08-06T02:26:30;21.10;50.70
74661;SHT31;63191;39.566;2.654;2023-08-06T02:28:55;21.12;50.51
74661;SHT31;63191;39.566;2.654;2023-08-06T02:31:21;21.13;50.54
74661;SHT31;63191;39.566;2.654;2023-08-06T02:33:47;21.13;50.60
74661;SHT31;63191;39.566;2.654;2023-08-06T02:36:13;21.12;50.44
74661;SHT31;63191;39.566;2.654;2023-08-06T02:38:38;21.10;50.59
74661;SHT31;63191;39.566;2.654;2023-08-06T02:41:04;21.08;50.71
74661;SHT31;63191;39.566;2.654;2023-08-06T02:43:30;21.09;50.93
74661;SHT31;63191;39.566;2.654;2023-08-06T02:46:00;21.08;51.04
74661;SHT31;63191;39.566;2.654;2023-08-06T02:48:26;21.06;51.14
74661;SHT31;63191;39.566;2.654;2023-08-06T02:50:52;21.06;51.24
74661;SHT31;63191;39.566;2.654;2023-08-06T02:53:18;21.05;51.23
74661;SHT31;63191;39.566;2.654;2023-08-06T02:55:47;21.05;51.52
74661;SHT31;63191;39.566;2.654;2023-08-06T02:58:16;21.03;51.46
74661;SHT31;63191;39.566;2.654;2023-08-06T03:00:43;21.00;51.78
74661;SHT31;63191;39.566;2.654;2023-08-06T03:03:09;20.99;51.89
74661;SHT31;63191;39.566;2.654;2023-08-06T03:05:35;20.99;51.98
74661;SHT31;63191;39.566;2.654;2023-08-06T03:08:00;21.00;52.24
74661;SHT31;63191;39.566;2.654;2023-08-06T03:10:26;21.02;52.21
74661;SHT31;63191;39.566;2.654;2023-08-06T03:12:52;21.07;52.26
74661;SHT31;63191;39.566;2.654;2023-08-06T03:15:18;21.10;52.17
74661;SHT31;63191;39.566;2.654;2023-08-06T03:17:43;21.11;52.15
74661;SHT31;63191;39.566;2.654;2023-08-06T03:20:10;21.16;52.30
74661;SHT31;63191;39.566;2.654;2023-08-06T03:22:36;21.21;52.36
74661;SHT31;63191;39.566;2.654;2023-08-06T03:25:02;21.27;52.31
74661;SHT31;63191;39.566;2.654;2023-08-06T03:27:28;21.29;52.25
74661;SHT31;63191;39.566;2.654;2023-08-06T03:29:54;21.31;52.30
74661;SHT31;63191;39.566;2.654;2023-08-06T03:32:20;21.32;52.32
74661;SHT31;63191;39.566;2.654;2023-08-06T03:34:46;21.32;52.42
74661;SHT31;63191;39.566;2.654;2023-08-06T03:37:12;21.32;52.40
74661;SHT31;63191;39.566;2.654;2023-08-06T03:39:37;21.33;52.46
74661;SHT31;63191;39.566;2.654;2023-08-06T03:42:03;21.35;52.44
74661;SHT31;63191;39.566;2.654;2023-08-06T03:44:29;21.37;52.60
74661;SHT31;63191;39.566;2.654;2023-08-06T03:46:56;21.43;52.67
74661;SHT31;63191;39.566;2.654;2023-08-06T03:49:21;21.50;52.62
74661;SHT31;63191;39.566;2.654;2023-08-06T03:51:47;21.58;52.47
74661;SHT31;63191;39.566;2.654;2023-08-06T03:54:13;21.66;52.37
74661;SHT31;63191;39.566;2.654;2023-08-06T03:56:38;21.72;51.97
74661;SHT31;63191;39.566;2.654;2023-08-06T03:59:04;21.73;51.41
74661;SHT31;63191;39.566;2.654;2023-08-06T04:01:30;21.77;51.18
74661;SHT31;63191;39.566;2.654;2023-08-06T04:03:56;21.78;51.02
74661;SHT31;63191;39.566;2.654;2023-08-06T04:06:21;21.77;50.89
74661;SHT31;63191;39.566;2.654;2023-08-06T04:08:47;21.76;50.72
74661;SHT31;63191;39.566;2.654;2023-08-06T04:11:13;21.74;50.64
74661;SHT31;63191;39.566;2.654;2023-08-06T04:13:41;21.70;50.67
74661;SHT31;63191;39.566;2.654;2023-08-06T04:16:09;21.66;50.71
74661;SHT31;63191;39.566;2.654;2023-08-06T04:18:35;21.60;50.72
74661;SHT31;63191;39.566;2.654;2023-08-06T04:21:01;21.57;50.66
74661;SHT31;63191;39.566;2.654;2023-08-06T04:23:27;21.56;50.73
74661;SHT31;63191;39.566;2.654;2023-08-06T04:25:56;21.56;50.68
74661;SHT31;63191;39.566;2.654;2023-08-06T04:28:22;21.56;50.58
74661;SHT31;63191;39.566;2.654;2023-08-06T04:30:48;21.55;50.61
74661;SHT31;63191;39.566;2.654;2023-08-06T04:33:14;21.55;50.70
74661;SHT31;63191;39.566;2.654;2023-08-06T04:35:40;21.54;50.79
74661;SHT31;63191;39.566;2.654;2023-08-06T04:38:06;21.54;50.97
74661;SHT31;63191;39.566;2.654;2023-08-06T04:40:35;21.52;51.10
74661;SHT31;63191;39.566;2.654;2023-08-06T04:43:01;21.53;51.30
74661;SHT31;63191;39.566;2.654;2023-08-06T04:45:27;21.53;51.42
74661;SHT31;63191;39.566;2.654;2023-08-06T04:47:54;21.53;51.65
74661;SHT31;63191;39.566;2.654;2023-08-06T04:50:20;21.52;51.68
74661;SHT31;63191;39.566;2.654;2023-08-06T04:52:46;21.48;51.74
74661;SHT31;63191;39.566;2.654;2023-08-06T04:55:11;21.46;51.94
74661;SHT31;63191;39.566;2.654;2023-08-06T04:57:37;21.43;52.23
74661;SHT31;63191;39.566;2.654;2023-08-06T05:00:03;21.42;52.34
74661;SHT31;63191;39.566;2.654;2023-08-06T05:02:30;21.40;52.44
74661;SHT31;63191;39.566;2.654;2023-08-06T05:04:57;21.39;52.60
74661;SHT31;63191;39.566;2.654;2023-08-06T05:07:23;21.39;52.60
74661;SHT31;63191;39.566;2.654;2023-08-06T05:09:49;21.39;52.53
74661;SHT31;63191;39.566;2.654;2023-08-06T05:12:15;21.39;52.51
74661;SHT31;63191;39.566;2.654;2023-08-06T05:14:40;21.39;52.52
74661;SHT31;63191;39.566;2.654;2023-08-06T05:17:06;21.39;52.45
74661;SHT31;63191;39.566;2.654;2023-08-06T05:19:32;21.40;52.34
74661;SHT31;63191;39.566;2.654;2023-08-06T05:21:58;21.41;52.30
74661;SHT31;63191;39.566;2.654;2023-08-06T05:24:23;21.44;52.29
74661;SHT31;63191;39.566;2.654;2023-08-06T05:26:49;21.48;52.23
74661;SHT31;63191;39.566;2.654;2023-08-06T05:29:16;21.54;52.26
74661;SHT31;63191;39.566;2.654;2023-08-06T05:31:42;21.59;52.19
74661;SHT31;63191;39.566;2.654;2023-08-06T05:34:08;21.65;52.09
74661;SHT31;63191;39.566;2.654;2023-08-06T05:36:34;21.73;52.09
74661;SHT31;63191;39.566;2.654;2023-08-06T05:39:00;21.81;52.00
74661;SHT31;63191;39.566;2.654;2023-08-06T05:41:25;21.89;52.02
74661;SHT31;63191;39.566;2.654;2023-08-06T05:43:51;21.96;52.05
74661;SHT31;63191;39.566;2.654;2023-08-06T05:46:17;22.05;52.14
74661;SHT31;63191;39.566;2.654;2023-08-06T05:48:42;22.16;52.20
74661;SHT31;63191;39.566;2.654;2023-08-06T05:51:08;22.28;52.19
74661;SHT31;63191;39.566;2.654;2023-08-06T05:53:34;22.40;52.12
74661;SHT31;63191;39.566;2.654;2023-08-06T05:56:00;22.52;52.10
74661;SHT31;63191;39.566;2.654;2023-08-06T05:58:25;22.62;52.11
74661;SHT31;63191;39.566;2.654;2023-08-06T06:00:54;22.74;52.09
74661;SHT31;63191;39.566;2.654;2023-08-06T06:03:19;22.87;52.10
74661;SHT31;63191;39.566;2.654;2023-08-06T06:05:45;22.99;52.00
74661;SHT31;63191;39.566;2.654;2023-08-06T06:08:11;23.11;52.00
74661;SHT31;63191;39.566;2.654;2023-08-06T06:10:37;23.24;51.91
74661;SHT31;63191;39.566;2.654;2023-08-06T06:13:02;23.39;51.81
74661;SHT31;63191;39.566;2.654;2023-08-06T06:15:28;23.55;51.63
74661;SHT31;63191;39.566;2.654;2023-08-06T06:17:54;23.73;51.28
74661;SHT31;63191;39.566;2.654;2023-08-06T06:20:19;23.90;50.93
74661;SHT31;63191;39.566;2.654;2023-08-06T06:22:45;24.06;50.56
74661;SHT31;63191;39.566;2.654;2023-08-06T06:25:11;24.23;50.23
74661;SHT31;63191;39.566;2.654;2023-08-06T06:27:37;24.40;49.98
74661;SHT31;63191;39.566;2.654;2023-08-06T06:30:02;24.56;49.69
74661;SHT31;63191;39.566;2.654;2023-08-06T06:32:29;24.73;49.41
74661;SHT31;63191;39.566;2.654;2023-08-06T06:34:55;24.88;49.07
74661;SHT31;63191;39.566;2.654;2023-08-06T06:37:20;25.07;48.83
74661;SHT31;63191;39.566;2.654;2023-08-06T06:39:46;25.31;48.49
74661;SHT31;63191;39.566;2.654;2023-08-06T06:42:12;25.59;48.13
74661;SHT31;63191;39.566;2.654;2023-08-06T06:44:37;25.95;47.67
74661;SHT31;63191;39.566;2.654;2023-08-06T06:47:03;26.30;47.26
74661;SHT31;63191;39.566;2.654;2023-08-06T06:49:29;26.64;46.74
74661;SHT31;63191;39.566;2.654;2023-08-06T06:51:55;26.95;46.26
74661;SHT31;63191;39.566;2.654;2023-08-06T06:54:20;27.18;45.91
74661;SHT31;63191;39.566;2.654;2023-08-06T06:56:46;27.28;45.94
74661;SHT31;63191;39.566;2.654;2023-08-06T06:59:12;27.30;46.26
74661;SHT31;63191;39.566;2.654;2023-08-06T07:01:38;27.31;46.77
74661;SHT31;63191;39.566;2.654;2023-08-06T07:04:03;27.35;47.67
74661;SHT31;63191;39.566;2.654;2023-08-06T07:06:30;27.45;48.49
74661;SHT31;63191;39.566;2.654;2023-08-06T07:08:57;27.58;48.73
74661;SHT31;63191;39.566;2.654;2023-08-06T07:11:22;27.67;48.83
74661;SHT31;63191;39.566;2.654;2023-08-06T07:13:49;27.77;48.83
74661;SHT31;63191;39.566;2.654;2023-08-06T07:16:15;27.86;49.06
74661;SHT31;63191;39.566;2.654;2023-08-06T07:18:41;27.94;49.26
74661;SHT31;63191;39.566;2.654;2023-08-06T07:21:06;27.99;49.87
74661;SHT31;63191;39.566;2.654;2023-08-06T07:23:32;28.00;50.09
74661;SHT31;63191;39.566;2.654;2023-08-06T07:25:58;28.05;50.21
74661;SHT31;63191;39.566;2.654;2023-08-06T07:28:23;28.11;50.18
74661;SHT31;63191;39.566;2.654;2023-08-06T07:30:49;28.19;50.07
74661;SHT31;63191;39.566;2.654;2023-08-06T07:33:16;28.28;49.93
74661;SHT31;63191;39.566;2.654;2023-08-06T07:35:41;28.38;49.75
74661;SHT31;63191;39.566;2.654;2023-08-06T07:38:08;28.49;49.50
74661;SHT31;63191;39.566;2.654;2023-08-06T07:40:35;28.60;49.20
74661;SHT31;63191;39.566;2.654;2023-08-06T07:43:02;28.69;48.85
74661;SHT31;63191;39.566;2.654;2023-08-06T07:45:32;28.81;48.61
74661;SHT31;63191;39.566;2.654;2023-08-06T07:48:00;28.86;48.32
74661;SHT31;63191;39.566;2.654;2023-08-06T07:50:25;28.91;48.10
74661;SHT31;63191;39.566;2.654;2023-08-06T07:52:51;28.98;47.76
74661;SHT31;63191;39.566;2.654;2023-08-06T07:55:17;29.05;47.30
74661;SHT31;63191;39.566;2.654;2023-08-06T07:57:42;29.13;47.21
74661;SHT31;63191;39.566;2.654;2023-08-06T08:00:08;29.22;46.72
74661;SHT31;63191;39.566;2.654;2023-08-06T08:02:35;29.29;46.06
74661;SHT31;63191;39.566;2.654;2023-08-06T08:05:00;29.33;45.55
74661;SHT31;63191;39.566;2.654;2023-08-06T08:07:26;29.42;45.28
74661;SHT31;63191;39.566;2.654;2023-08-06T08:09:55;29.51;44.66
74661;SHT31;63191;39.566;2.654;2023-08-06T08:12:21;29.59;44.47
74661;SHT31;63191;39.566;2.654;2023-08-06T08:14:48;29.67;44.56
74661;SHT31;63191;39.566;2.654;2023-08-06T08:17:13;29.80;44.47
74661;SHT31;63191;39.566;2.654;2023-08-06T08:19:40;29.92;44.27
74661;SHT31;63191;39.566;2.654;2023-08-06T08:22:06;29.97;44.18
74661;SHT31;63191;39.566;2.654;2023-08-06T08:24:32;30.03;43.93
74661;SHT31;63191;39.566;2.654;2023-08-06T08:26:58;30.06;43.87
74661;SHT31;63191;39.566;2.654;2023-08-06T08:29:24;30.16;43.80
74661;SHT31;63191;39.566;2.654;2023-08-06T08:31:49;30.24;43.68
74661;SHT31;63191;39.566;2.654;2023-08-06T08:34:15;30.29;43.60
74661;SHT31;63191;39.566;2.654;2023-08-06T08:36:42;30.27;43.55
74661;SHT31;63191;39.566;2.654;2023-08-06T08:39:08;30.23;43.32
74661;SHT31;63191;39.566;2.654;2023-08-06T08:41:35;30.17;43.62
74661;SHT31;63191;39.566;2.654;2023-08-06T08:44:02;30.19;43.75
74661;SHT31;63191;39.566;2.654;2023-08-06T08:46:29;30.30;43.53
74661;SHT31;63191;39.566;2.654;2023-08-06T08:48:57;30.40;43.22
74661;SHT31;63191;39.566;2.654;2023-08-06T08:51:25;30.52;43.31
74661;SHT31;63191;39.566;2.654;2023-08-06T08:53:53;30.57;43.11
74661;SHT31;63191;39.566;2.654;2023-08-06T08:56:21;30.65;42.89
74661;SHT31;63191;39.566;2.654;2023-08-06T08:58:47;30.71;42.86
74661;SHT31;63191;39.566;2.654;2023-08-06T09:01:14;30.77;43.22
74661;SHT31;63191;39.566;2.654;2023-08-06T09:03:41;30.88;43.50
74661;SHT31;63191;39.566;2.654;2023-08-06T09:06:10;31.00;43.08
74661;SHT31;63191;39.566;2.654;2023-08-06T09:09:01;31.07;41.95
74661;SHT31;63191;39.566;2.654;2023-08-06T09:11:32;31.15;41.72
74661;SHT31;63191;39.566;2.654;2023-08-06T09:14:06;31.18;41.53
74661;SHT31;63191;39.566;2.654;2023-08-06T09:16:36;31.25;41.39
74661;SHT31;63191;39.566;2.654;2023-08-06T09:19:12;31.35;41.37
74661;SHT31;63191;39.566;2.654;2023-08-06T09:21:40;31.43;41.29
74661;SHT31;63191;39.566;2.654;2023-08-06T09:24:08;31.50;41.20
74661;SHT31;63191;39.566;2.654;2023-08-06T09:26:39;31.57;40.97
74661;SHT31;63191;39.566;2.654;2023-08-06T09:29:07;31.68;40.66
74661;SHT31;63191;39.566;2.654;2023-08-06T09:31:45;31.73;40.64
74661;SHT31;63191;39.566;2.654;2023-08-06T09:34:15;31.82;40.29
74661;SHT31;63191;39.566;2.654;2023-08-06T09:36:49;31.90;40.33
74661;SHT31;63191;39.566;2.654;2023-08-06T09:39:19;32.00;40.31
74661;SHT31;63191;39.566;2.654;2023-08-06T09:41:57;32.08;40.23
74661;SHT31;63191;39.566;2.654;2023-08-06T09:44:27;32.19;39.97
74661;SHT31;63191;39.566;2.654;2023-08-06T09:46:59;32.27;39.88
74661;SHT31;63191;39.566;2.654;2023-08-06T09:51:57;32.47;39.48
74661;SHT31;63191;39.566;2.654;2023-08-06T09:54:25;32.51;38.88
74661;SHT31;63191;39.566;2.654;2023-08-06T09:56:53;32.52;38.79
74661;SHT31;63191;39.566;2.654;2023-08-06T09:59:20;32.48;38.80
74661;SHT31;63191;39.566;2.654;2023-08-06T10:01:46;32.55;38.88
74661;SHT31;63191;39.566;2.654;2023-08-06T10:04:13;32.62;38.82
74661;SHT31;63191;39.566;2.654;2023-08-06T10:06:46;32.67;38.67
74661;SHT31;63191;39.566;2.654;2023-08-06T10:09:15;32.71;38.70
74661;SHT31;63191;39.566;2.654;2023-08-06T10:11:42;32.79;38.70
74661;SHT31;63191;39.566;2.654;2023-08-06T10:14:13;32.88;39.57
74661;SHT31;63191;39.566;2.654;2023-08-06T10:16:41;32.90;40.25
74661;SHT31;63191;39.566;2.654;2023-08-06T10:19:09;32.95;40.34
74661;SHT31;63191;39.566;2.654;2023-08-06T10:21:39;33.00;40.44
74661;SHT31;63191;39.566;2.654;2023-08-06T10:24:08;33.04;40.49
74661;SHT31;63191;39.566;2.654;2023-08-06T10:26:35;33.05;40.50
74661;SHT31;63191;39.566;2.654;2023-08-06T10:29:01;33.05;40.67
74661;SHT31;63191;39.566;2.654;2023-08-06T10:32:03;33.00;41.03
74661;SHT31;63191;39.566;2.654;2023-08-06T10:37:24;32.93;41.25
74661;SHT31;63191;39.566;2.654;2023-08-06T10:40:01;32.86;40.63
74661;SHT31;63191;39.566;2.654;2023-08-06T10:42:29;32.77;41.09
74661;SHT31;63191;39.566;2.654;2023-08-06T10:45:11;32.71;41.50
74661;SHT31;63191;39.566;2.654;2023-08-06T10:47:41;32.65;41.41
74661;SHT31;63191;39.566;2.654;2023-08-06T10:50:10;32.57;42.64
74661;SHT31;63191;39.566;2.654;2023-08-06T10:52:45;32.54;41.94
74661;SHT31;63191;39.566;2.654;2023-08-06T10:55:22;32.46;42.25
74661;SHT31;63191;39.566;2.654;2023-08-06T10:57:56;32.35;43.06
74661;SHT31;63191;39.566;2.654;2023-08-06T11:00:23;32.30;43.88
74661;SHT31;63191;39.566;2.654;2023-08-06T11:02:50;32.33;43.58
74661;SHT31;63191;39.566;2.654;2023-08-06T11:05:18;32.33;44.13
74661;SHT31;63191;39.566;2.654;2023-08-06T11:07:44;32.30;45.18
74661;SHT31;63191;39.566;2.654;2023-08-06T11:10:13;32.31;45.83
74661;SHT31;63191;39.566;2.654;2023-08-06T11:12:39;32.33;45.65
74661;SHT31;63191;39.566;2.654;2023-08-06T11:15:05;32.34;44.62
74661;SHT31;63191;39.566;2.654;2023-08-06T11:17:33;32.37;44.95
74661;SHT31;63191;39.566;2.654;2023-08-06T11:20:03;32.37;46.29
74661;SHT31;63191;39.566;2.654;2023-08-06T11:22:30;32.33;46.80
74661;SHT31;63191;39.566;2.654;2023-08-06T11:24:56;32.30;46.33
74661;SHT31;63191;39.566;2.654;2023-08-06T11:27:22;32.29;47.07
74661;SHT31;63191;39.566;2.654;2023-08-06T11:29:48;32.25;47.69
74661;SHT31;63191;39.566;2.654;2023-08-06T11:32:14;32.19;47.91
74661;SHT31;63191;39.566;2.654;2023-08-06T11:34:39;32.20;49.21
74661;SHT31;63191;39.566;2.654;2023-08-06T11:37:06;32.24;49.93
74661;SHT31;63191;39.566;2.654;2023-08-06T11:39:36;32.27;49.27
74661;SHT31;63191;39.566;2.654;2023-08-06T11:42:03;32.31;48.59
74661;SHT31;63191;39.566;2.654;2023-08-06T11:44:35;32.35;48.48
74661;SHT31;63191;39.566;2.654;2023-08-06T11:47:02;32.37;48.05
74661;SHT31;63191;39.566;2.654;2023-08-06T11:52:20;32.55;47.91
74661;SHT31;63191;39.566;2.654;2023-08-06T11:55:05;32.66;47.44
74661;SHT31;63191;39.566;2.654;2023-08-06T11:57:35;32.81;46.83
74661;SHT31;63191;39.566;2.654;2023-08-06T12:00:05;32.91;46.33
74661;SHT31;63191;39.566;2.654;2023-08-06T12:02:36;33.05;46.61
74661;SHT31;63191;39.566;2.654;2023-08-06T12:05:10;33.27;46.48
74661;SHT31;63191;39.566;2.654;2023-08-06T12:07:42;33.56;45.75
74661;SHT31;63191;39.566;2.654;2023-08-06T12:10:12;33.95;44.72
74661;SHT31;63191;39.566;2.654;2023-08-06T12:12:39;34.46;43.33
74661;SHT31;63191;39.566;2.654;2023-08-06T12:15:06;35.17;42.09
74661;SHT31;63191;39.566;2.654;2023-08-06T12:17:33;36.09;40.71
74661;SHT31;63191;39.566;2.654;2023-08-06T12:20:00;37.15;39.66
74661;SHT31;63191;39.566;2.654;2023-08-06T12:22:26;38.37;37.85
74661;SHT31;63191;39.566;2.654;2023-08-06T12:24:51;39.53;36.20
74661;SHT31;63191;39.566;2.654;2023-08-06T12:27:17;40.69;34.32
74661;SHT31;63191;39.566;2.654;2023-08-06T12:29:44;41.71;32.59
74661;SHT31;63191;39.566;2.654;2023-08-06T12:32:13;42.59;31.73
74661;SHT31;63191;39.566;2.654;2023-08-06T12:34:40;43.53;30.53
74661;SHT31;63191;39.566;2.654;2023-08-06T12:37:07;44.38;29.23
74661;SHT31;63191;39.566;2.654;2023-08-06T12:39:34;45.18;28.12
74661;SHT31;63191;39.566;2.654;2023-08-06T12:42:01;45.91;27.70
74661;SHT31;63191;39.566;2.654;2023-08-06T12:44:29;46.57;26.55
74661;SHT31;63191;39.566;2.654;2023-08-06T12:46:55;47.17;25.63
74661;SHT31;63191;39.566;2.654;2023-08-06T12:49:21;47.74;24.78
74661;SHT31;63191;39.566;2.654;2023-08-06T12:51:50;48.35;24.73
74661;SHT31;63191;39.566;2.654;2023-08-06T12:54:16;48.95;24.18
74661;SHT31;63191;39.566;2.654;2023-08-06T12:56:43;49.62;23.53
74661;SHT31;63191;39.566;2.654;2023-08-06T12:59:11;50.08;22.39
74661;SHT31;63191;39.566;2.654;2023-08-06T13:01:37;50.38;20.89
74661;SHT31;63191;39.566;2.654;2023-08-06T13:04:03;50.53;20.51
74661;SHT31;63191;39.566;2.654;2023-08-06T13:06:29;50.65;20.53
74661;SHT31;63191;39.566;2.654;2023-08-06T13:08:56;50.82;20.58
74661;SHT31;63191;39.566;2.654;2023-08-06T13:11:22;51.14;21.01
74661;SHT31;63191;39.566;2.654;2023-08-06T13:13:48;51.51;20.57
74661;SHT31;63191;39.566;2.654;2023-08-06T13:16:14;51.64;19.90
74661;SHT31;63191;39.566;2.654;2023-08-06T13:18:40;51.72;20.07
74661;SHT31;63191;39.566;2.654;2023-08-06T13:21:06;52.02;19.13
74661;SHT31;63191;39.566;2.654;2023-08-06T13:23:31;52.33;19.30
74661;SHT31;63191;39.566;2.654;2023-08-06T13:25:57;52.75;19.05
74661;SHT31;63191;39.566;2.654;2023-08-06T13:28:23;53.08;18.55
74661;SHT31;63191;39.566;2.654;2023-08-06T13:30:49;53.23;18.31
74661;SHT31;63191;39.566;2.654;2023-08-06T13:33:15;53.40;18.20
74661;SHT31;63191;39.566;2.654;2023-08-06T13:35:41;53.60;18.23
74661;SHT31;63191;39.566;2.654;2023-08-06T13:38:07;53.60;17.76
74661;SHT31;63191;39.566;2.654;2023-08-06T13:40:33;53.52;17.78
74661;SHT31;63191;39.566;2.654;2023-08-06T13:42:59;53.39;17.51
74661;SHT31;63191;39.566;2.654;2023-08-06T13:45:25;52.83;18.22
74661;SHT31;63191;39.566;2.654;2023-08-06T13:47:51;52.47;18.31
74661;SHT31;63191;39.566;2.654;2023-08-06T13:50:17;52.09;18.53
74661;SHT31;63191;39.566;2.654;2023-08-06T13:52:44;51.82;18.32
74661;SHT31;63191;39.566;2.654;2023-08-06T13:55:10;51.88;18.54
74661;SHT31;63191;39.566;2.654;2023-08-06T13:57:35;52.19;17.78
74661;SHT31;63191;39.566;2.654;2023-08-06T14:00:01;52.28;17.63
74661;SHT31;63191;39.566;2.654;2023-08-06T14:02:27;52.61;17.75
74661;SHT31;63191;39.566;2.654;2023-08-06T14:04:54;52.69;16.71
74661;SHT31;63191;39.566;2.654;2023-08-06T14:07:20;52.78;16.98
74661;SHT31;63191;39.566;2.654;2023-08-06T14:09:46;52.82;16.74
74661;SHT31;63191;39.566;2.654;2023-08-06T14:12:12;52.61;16.03
74661;SHT31;63191;39.566;2.654;2023-08-06T14:14:39;52.24;16.60
74661;SHT31;63191;39.566;2.654;2023-08-06T14:17:05;51.98;17.06
74661;SHT31;63191;39.566;2.654;2023-08-06T14:19:31;51.90;16.88
74661;SHT31;63191;39.566;2.654;2023-08-06T14:21:56;51.88;17.98
74661;SHT31;63191;39.566;2.654;2023-08-06T14:24:22;51.77;17.20
74661;SHT31;63191;39.566;2.654;2023-08-06T14:26:48;51.74;16.54
74661;SHT31;63191;39.566;2.654;2023-08-06T14:29:14;51.71;16.89
74661;SHT31;63191;39.566;2.654;2023-08-06T14:31:40;51.59;16.23
74661;SHT31;63191;39.566;2.654;2023-08-06T14:34:06;51.40;16.20
74661;SHT31;63191;39.566;2.654;2023-08-06T14:36:32;51.28;16.24
74661;SHT31;63191;39.566;2.654;2023-08-06T14:38:58;51.15;16.25
74661;SHT31;63191;39.566;2.654;2023-08-06T14:41:24;50.96;17.15
74661;SHT31;63191;39.566;2.654;2023-08-06T14:43:50;50.66;16.86
74661;SHT31;63191;39.566;2.654;2023-08-06T14:46:16;50.30;17.48
74661;SHT31;63191;39.566;2.654;2023-08-06T14:48:41;50.00;17.23
74661;SHT31;63191;39.566;2.654;2023-08-06T14:51:08;49.90;17.47
74661;SHT31;63191;39.566;2.654;2023-08-06T14:53:34;49.77;17.00
74661;SHT31;63191;39.566;2.654;2023-08-06T14:56:00;49.92;17.25
74661;SHT31;63191;39.566;2.654;2023-08-06T14:58:25;50.19;16.75
74661;SHT31;63191;39.566;2.654;2023-08-06T15:00:52;50.39;16.56
74661;SHT31;63191;39.566;2.654;2023-08-06T15:03:17;50.48;15.18
74661;SHT31;63191;39.566;2.654;2023-08-06T15:05:43;50.52;13.42
74661;SHT31;63191;39.566;2.654;2023-08-06T15:08:12;50.40;14.66
74661;SHT31;63191;39.566;2.654;2023-08-06T15:10:38;50.55;14.03
74661;SHT31;63191;39.566;2.654;2023-08-06T15:13:04;50.80;14.35
74661;SHT31;63191;39.566;2.654;2023-08-06T15:15:29;50.88;14.60
74661;SHT31;63191;39.566;2.654;2023-08-06T15:17:55;50.99;14.90
74661;SHT31;63191;39.566;2.654;2023-08-06T15:20:22;51.31;15.90
74661;SHT31;63191;39.566;2.654;2023-08-06T15:22:49;51.65;15.72
74661;SHT31;63191;39.566;2.654;2023-08-06T15:25:14;51.99;15.82
74661;SHT31;63191;39.566;2.654;2023-08-06T15:27:40;52.38;15.41
74661;SHT31;63191;39.566;2.654;2023-08-06T15:30:06;52.61;15.89
74661;SHT31;63191;39.566;2.654;2023-08-06T15:32:33;52.88;15.30
74661;SHT31;63191;39.566;2.654;2023-08-06T15:34:59;53.05;14.62
74661;SHT31;63191;39.566;2.654;2023-08-06T15:37:25;53.11;15.11
74661;SHT31;63191;39.566;2.654;2023-08-06T15:39:51;53.11;14.60
74661;SHT31;63191;39.566;2.654;2023-08-06T15:42:17;53.14;15.43
74661;SHT31;63191;39.566;2.654;2023-08-06T15:44:43;53.21;14.91
74661;SHT31;63191;39.566;2.654;2023-08-06T15:47:09;53.13;13.92